Time;durP1;ratioP1;P1;durP2;ratioP2;P2;SDS_P1;SDS_P2;PMS_P1;PMS_P2;Temp;Humidity;BMP_temperature;BMP_pressure;BME280_temperature;BME280_humidity;BME280_pressure;Samples;Min_cycle;Max_cycle;Signal;HPM_P1;HPM_P2
2022/07/31 00:00:16;;;;;;;8.10;7.22;;;;;;;;;;5012617;28;20052;-71
2022/07/31 00:02:43;;;;;;;9.23;7.25;;;;;;;;;;5001492;28;20033;-71
2022/07/31 00:05:09;;;;;;;8.68;7.10;;;;;;;;;;5005618;28;20028;-72
2022/07/31 00:07:36;;;;;;;8.20;7.03;;;;;;;;;;5002224;28;20042;-71
2022/07/31 00:10:02;;;;;;;7.85;7.05;;;;;;;;;;5001479;28;20053;-71
2022/07/31 00:12:28;;;;;;;10.40;7.00;;;;;;;;;;5001669;28;20037;-71
2022/07/31 00:14:54;;;;;;;9.20;7.32;;;;;;;;;;5006619;28;20037;-71
2022/07/31 00:17:20;;;;;;;7.75;6.88;;;;;;;;;;5008542;28;20021;-72
2022/07/31 00:19:47;;;;;;;7.07;6.47;;;;;;;;;;5010361;28;20025;-72
2022/07/31 00:22:13;;;;;;;7.63;6.93;;;;;;;;;;5012585;28;20299;-71
2022/07/31 00:24:39;;;;;;;9.40;7.25;;;;;;;;;;5012552;28;20037;-72
2022/07/31 00:27:05;;;;;;;8.73;6.90;;;;;;;;;;5006069;28;20498;-71
2022/07/31 00:29:31;;;;;;;8.45;7.57;;;;;;;;;;5010573;28;20879;-72
2022/07/31 00:31:57;;;;;;;10.48;7.47;;;;;;;;;;5003662;28;20030;-71
2022/07/31 00:34:23;;;;;;;8.88;7.22;;;;;;;;;;5009834;28;20041;-71
2022/07/31 00:36:50;;;;;;;7.93;6.72;;;;;;;;;;5009303;28;20387;-71
2022/07/31 00:39:16;;;;;;;8.10;7.00;;;;;;;;;;5013120;28;20029;-72
2022/07/31 00:41:43;;;;;;;8.68;6.15;;;;;;;;;;5007786;28;20045;-72
2022/07/31 00:44:10;;;;;;;7.82;6.72;;;;;;;;;;5012386;28;20032;-72
2022/07/31 00:46:36;;;;;;;8.68;6.15;;;;;;;;;;5008184;28;20062;-71
2022/07/31 00:49:03;;;;;;;8.00;5.70;;;;;;;;;;4996681;28;20030;-71
2022/07/31 00:51:29;;;;;;;6.38;5.15;;;;;;;;;;5006330;28;20048;-71
2022/07/31 00:53:56;;;;;;;11.23;6.65;;;;;;;;;;5008643;28;20045;-72
2022/07/31 00:56:22;;;;;;;6.93;6.22;;;;;;;;;;5007951;28;20610;-72
2022/07/31 00:58:48;;;;;;;9.55;5.90;;;;;;;;;;5013703;28;20033;-71
2022/07/31 01:01:14;;;;;;;6.78;5.88;;;;;;;;;;5009347;28;20029;-71
2022/07/31 01:03:40;;;;;;;11.32;6.00;;;;;;;;;;5007672;28;20026;-71
2022/07/31 01:06:06;;;;;;;9.30;5.72;;;;;;;;;;5007635;28;20026;-71
2022/07/31 01:08:32;;;;;;;6.72;5.63;;;;;;;;;;5008372;28;20025;-72
2022/07/31 01:11:04;;;;;;;7.35;5.30;;;;;;;;;;5006835;28;20915;-72
2022/07/31 01:13:30;;;;;;;;;;;;;;;;;;5008469;28;20092;-72
2022/07/31 01:15:58;;;;;;;7.22;5.22;;;;;;;;;;5010781;28;19932;-71
2022/07/31 01:18:26;;;;;;;10.25;5.68;;;;;;;;;;5008412;28;20022;-71
2022/07/31 01:20:55;;;;;;;7.75;5.35;;;;;;;;;;5008945;28;20474;-74
2022/07/31 01:23:27;;;;;;;6.60;5.50;;;;;;;;;;5003048;28;20382;-71
2022/07/31 01:26:12;;;;;;;5.75;5.03;;;;;;;;;;5010499;28;20060;-71
2022/07/31 01:28:41;;;;;;;5.35;4.80;;;;;;;;;;5005407;28;20029;-73
2022/07/31 01:31:11;;;;;;;10.63;4.80;;;;;;;;;;5011019;28;20080;-72
2022/07/31 01:33:46;;;;;;;9.65;4.97;;;;;;;;;;5006463;28;20042;-71
2022/07/31 01:36:16;;;;;;;8.75;4.75;;;;;;;;;;5009473;28;20052;-72
2022/07/31 01:38:44;;;;;;;6.30;4.33;;;;;;;;;;5010353;28;20192;-75
2022/07/31 01:41:12;;;;;;;5.15;4.20;;;;;;;;;;5009917;28;20033;-72
2022/07/31 01:43:42;;;;;;;5.38;4.60;;;;;;;;;;5009729;28;20100;-75
2022/07/31 01:46:12;;;;;;;5.80;4.68;;;;;;;;;;5011190;28;20030;-75
2022/07/31 01:48:39;;;;;;;9.00;4.20;;;;;;;;;;5011279;28;20022;-75
2022/07/31 01:51:07;;;;;;;6.53;4.20;;;;;;;;;;5013354;28;20516;-75
2022/07/31 01:53:35;;;;;;;4.60;4.05;;;;;;;;;;5011647;28;20373;-75
2022/07/31 01:56:01;;;;;;;6.82;4.25;;;;;;;;;;5005555;28;20564;-74
2022/07/31 01:58:28;;;;;;;5.50;4.97;;;;;;;;;;5010261;28;20038;-75
2022/07/31 02:00:57;;;;;;;7.53;4.75;;;;;;;;;;5012224;28;20116;-75
2022/07/31 02:03:24;;;;;;;8.25;4.50;;;;;;;;;;5005579;28;20033;-76
2022/07/31 02:05:51;;;;;;;7.30;4.25;;;;;;;;;;5009419;28;20022;-74
2022/07/31 02:08:17;;;;;;;6.20;4.65;;;;;;;;;;5017793;28;20013;-75
2022/07/31 02:10:47;;;;;;;5.90;4.88;;;;;;;;;;5005608;28;20026;-76
2022/07/31 02:13:14;;;;;;;6.53;4.90;;;;;;;;;;5008391;28;20512;-76
2022/07/31 02:15:41;;;;;;;4.78;4.30;;;;;;;;;;5004572;28;20030;-76
2022/07/31 02:18:09;;;;;;;6.25;4.40;;;;;;;;;;5010717;28;20030;-76
2022/07/31 02:20:36;;;;;;;6.28;4.55;;;;;;;;;;5010781;28;20041;-75
2022/07/31 02:23:02;;;;;;;7.25;4.57;;;;;;;;;;5008938;28;20629;-75
2022/07/31 02:25:29;;;;;;;8.82;5.10;;;;;;;;;;5005677;28;20019;-72
2022/07/31 02:27:56;;;;;;;7.47;4.40;;;;;;;;;;5004252;28;20306;-74
2022/07/31 02:30:23;;;;;;;7.05;4.65;;;;;;;;;;5010686;28;20129;-72
2022/07/31 02:32:50;;;;;;;7.05;4.05;;;;;;;;;;5015274;28;20025;-72
2022/07/31 02:35:16;;;;;;;6.05;4.10;;;;;;;;;;5010038;28;20046;-72
2022/07/31 02:37:43;;;;;;;6.63;4.30;;;;;;;;;;5016491;28;20026;-72
2022/07/31 02:40:11;;;;;;;5.85;4.22;;;;;;;;;;5004777;28;20129;-72
2022/07/31 02:42:38;;;;;;;7.13;4.60;;;;;;;;;;5014920;28;20386;-73
2022/07/31 02:45:05;;;;;;;8.35;4.40;;;;;;;;;;5009122;28;20611;-71
2022/07/31 02:47:32;;;;;;;6.43;4.03;;;;;;;;;;5011495;28;20037;-71
2022/07/31 02:49:58;;;;;;;13.05;4.57;;;;;;;;;;5014304;28;20025;-72
2022/07/31 02:52:25;;;;;;;15.48;4.10;;;;;;;;;;5015005;28;20026;-72
2022/07/31 02:54:51;;;;;;;6.85;4.30;;;;;;;;;;5016039;28;20103;-73
2022/07/31 02:57:17;;;;;;;6.00;4.20;;;;;;;;;;5009816;28;20025;-72
2022/07/31 02:59:44;;;;;;;6.00;4.25;;;;;;;;;;5017050;28;20033;-73
2022/07/31 03:02:10;;;;;;;6.43;4.40;;;;;;;;;;5016336;28;20014;-71
2022/07/31 03:04:36;;;;;;;5.75;4.28;;;;;;;;;;5019897;28;20053;-72
2022/07/31 03:07:03;;;;;;;5.25;4.13;;;;;;;;;;5012865;28;20033;-73
2022/07/31 03:09:29;;;;;;;11.57;4.13;;;;;;;;;;5015017;28;20521;-75
2022/07/31 03:11:56;;;;;;;7.78;4.47;;;;;;;;;;5007781;28;20037;-73
2022/07/31 03:14:23;;;;;;;5.28;4.18;;;;;;;;;;5013041;28;20049;-72
2022/07/31 03:16:50;;;;;;;7.63;4.63;;;;;;;;;;5005004;28;20010;-74
2022/07/31 03:19:16;;;;;;;5.40;4.38;;;;;;;;;;5000171;28;20053;-72
2022/07/31 03:21:43;;;;;;;5.20;4.50;;;;;;;;;;5001438;28;20037;-72
2022/07/31 03:24:10;;;;;;;8.95;4.35;;;;;;;;;;4998061;28;20038;-72
2022/07/31 03:26:36;;;;;;;9.75;4.68;;;;;;;;;;4999851;28;20085;-71
2022/07/31 03:29:03;;;;;;;6.10;4.30;;;;;;;;;;4997383;28;20026;-72
2022/07/31 03:31:29;;;;;;;6.60;4.47;;;;;;;;;;5001048;28;20080;-72
2022/07/31 03:33:55;;;;;;;6.10;4.35;;;;;;;;;;4999751;28;20069;-72
2022/07/31 03:36:22;;;;;;;5.72;4.55;;;;;;;;;;4990054;28;20434;-72
2022/07/31 03:38:48;;;;;;;7.85;4.72;;;;;;;;;;4999575;28;20037;-71
2022/07/31 03:41:14;;;;;;;7.53;4.78;;;;;;;;;;5000293;28;20030;-71
2022/07/31 03:43:42;;;;;;;6.50;4.45;;;;;;;;;;4992806;28;20030;-73
2022/07/31 03:46:08;;;;;;;6.75;4.80;;;;;;;;;;5000527;28;20501;-72
2022/07/31 03:48:35;;;;;;;5.22;4.28;;;;;;;;;;4986331;28;20482;-73
2022/07/31 03:51:01;;;;;;;6.55;4.57;;;;;;;;;;4995238;28;20548;-73
2022/07/31 03:53:28;;;;;;;5.28;4.78;;;;;;;;;;4998785;28;20393;-75
2022/07/31 03:55:55;;;;;;;6.47;4.55;;;;;;;;;;5000974;28;20119;-74
2022/07/31 03:58:22;;;;;;;8.13;4.50;;;;;;;;;;4999071;28;20048;-74
2022/07/31 04:00:48;;;;;;;6.15;4.20;;;;;;;;;;4998558;28;20021;-74
2022/07/31 04:03:14;;;;;;;5.15;3.90;;;;;;;;;;4990831;28;20056;-73
2022/07/31 04:05:41;;;;;;;6.55;4.07;;;;;;;;;;4995793;28;20033;-73
2022/07/31 04:08:08;;;;;;;4.95;3.83;;;;;;;;;;4998277;28;20030;-73
2022/07/31 04:10:37;;;;;;;6.43;4.32;;;;;;;;;;4985190;28;20505;-73
2022/07/31 04:13:04;;;;;;;4.53;4.13;;;;;;;;;;4982044;28;20053;-73
2022/07/31 04:15:30;;;;;;;6.75;4.07;;;;;;;;;;4982571;28;20044;-73
2022/07/31 04:17:57;;;;;;;9.52;4.55;;;;;;;;;;4980259;28;20375;-71
2022/07/31 04:20:23;;;;;;;4.90;4.00;;;;;;;;;;4984361;28;20101;-71
2022/07/31 04:22:49;;;;;;;8.63;4.80;;;;;;;;;;4981584;28;20029;-71
2022/07/31 04:25:15;;;;;;;4.78;4.15;;;;;;;;;;4980957;28;20023;-71
2022/07/31 04:27:42;;;;;;;5.95;4.07;;;;;;;;;;4980187;28;20577;-71
2022/07/31 04:30:08;;;;;;;7.57;4.03;;;;;;;;;;4981341;28;20462;-71
2022/07/31 04:32:38;;;;;;;5.00;3.95;;;;;;;;;;4982581;28;20508;-71
2022/07/31 04:35:05;;;;;;;4.65;4.18;;;;;;;;;;4980976;28;20491;-72
2022/07/31 04:37:32;;;;;;;7.55;4.28;;;;;;;;;;4990386;28;20154;-71
2022/07/31 04:39:58;;;;;;;7.53;5.60;;;;;;;;;;4998838;28;20390;-71
2022/07/31 04:42:25;;;;;;;9.48;5.30;;;;;;;;;;4995599;28;20057;-71
2022/07/31 04:44:51;;;;;;;6.55;5.70;;;;;;;;;;4999618;28;20052;-71
2022/07/31 04:47:17;;;;;;;8.40;6.05;;;;;;;;;;4999381;28;20438;-71
2022/07/31 04:49:43;;;;;;;11.32;7.28;;;;;;;;;;5000042;28;20481;-71
2022/07/31 04:52:09;;;;;;;9.32;8.30;;;;;;;;;;4991496;28;20686;-72
2022/07/31 04:54:37;;;;;;;10.50;8.73;;;;;;;;;;4997467;28;20046;-71
2022/07/31 04:57:03;;;;;;;11.18;9.82;;;;;;;;;;4994805;28;20021;-72
2022/07/31 04:59:31;;;;;;;12.48;9.10;;;;;;;;;;4995783;28;20560;-72
2022/07/31 05:01:57;;;;;;;13.75;8.65;;;;;;;;;;4992759;28;20377;-72
2022/07/31 05:04:25;;;;;;;12.95;9.75;;;;;;;;;;4988388;28;20026;-72
2022/07/31 05:06:52;;;;;;;13.50;8.85;;;;;;;;;;4986350;28;20033;-70
2022/07/31 05:09:21;;;;;;;10.75;8.82;;;;;;;;;;4997103;28;20032;-71
2022/07/31 05:11:47;;;;;;;9.52;8.23;;;;;;;;;;4997876;28;20402;-70
2022/07/31 05:14:15;;;;;;;9.25;8.32;;;;;;;;;;4995596;28;20619;-72
2022/07/31 05:16:41;;;;;;;12.70;8.52;;;;;;;;;;4996369;28;20029;-71
2022/07/31 05:19:07;;;;;;;11.52;8.52;;;;;;;;;;4995799;28;20036;-72
2022/07/31 05:21:34;;;;;;;11.18;7.93;;;;;;;;;;4996761;28;20138;-71
2022/07/31 05:24:00;;;;;;;9.82;8.25;;;;;;;;;;4994469;28;20307;-72
2022/07/31 05:26:27;;;;;;;10.38;7.55;;;;;;;;;;4985592;28;20060;-71
2022/07/31 05:28:54;;;;;;;10.82;7.35;;;;;;;;;;4996101;28;20029;-71
2022/07/31 05:31:21;;;;;;;10.00;7.30;;;;;;;;;;4994860;28;20033;-71
2022/07/31 05:33:48;;;;;;;10.13;7.22;;;;;;;;;;4996553;28;20029;-71
2022/07/31 05:36:15;;;;;;;8.82;6.80;;;;;;;;;;4994044;28;20076;-72
2022/07/31 05:38:42;;;;;;;9.95;7.00;;;;;;;;;;4996958;28;20033;-71
2022/07/31 05:41:08;;;;;;;8.38;6.80;;;;;;;;;;4998447;28;20249;-72
2022/07/31 05:43:35;;;;;;;9.10;6.38;;;;;;;;;;4999728;28;20018;-72
2022/07/31 05:46:01;;;;;;;7.35;5.97;;;;;;;;;;4993389;28;20050;-72
2022/07/31 05:48:28;;;;;;;7.20;5.07;;;;;;;;;;4995927;28;20022;-71
2022/07/31 05:50:54;;;;;;;7.07;5.40;;;;;;;;;;4999211;28;20042;-71
2022/07/31 05:53:20;;;;;;;7.55;5.20;;;;;;;;;;4994190;28;20166;-72
2022/07/31 05:55:48;;;;;;;7.53;5.20;;;;;;;;;;4991470;28;20045;-72
2022/07/31 05:58:15;;;;;;;5.90;5.07;;;;;;;;;;4995087;28;20505;-72
2022/07/31 06:00:41;;;;;;;10.07;5.65;;;;;;;;;;4995300;28;20125;-70
2022/07/31 06:03:07;;;;;;;7.38;5.22;;;;;;;;;;4995945;28;20026;-72
2022/07/31 06:05:34;;;;;;;7.43;5.47;;;;;;;;;;4994167;28;20488;-72
2022/07/31 06:08:00;;;;;;;8.75;6.05;;;;;;;;;;4996371;28;20209;-71
2022/07/31 06:10:27;;;;;;;8.35;5.53;;;;;;;;;;4995537;28;20030;-70
2022/07/31 06:12:54;;;;;;;6.38;5.10;;;;;;;;;;4996384;28;20034;-70
2022/07/31 06:15:20;;;;;;;6.05;5.50;;;;;;;;;;4995257;28;20112;-70
2022/07/31 06:17:47;;;;;;;6.72;4.95;;;;;;;;;;4995037;28;20075;-71
2022/07/31 06:20:14;;;;;;;7.63;4.53;;;;;;;;;;4998477;28;20037;-71
2022/07/31 06:22:42;;;;;;;7.05;4.78;;;;;;;;;;5000936;28;20049;-70
2022/07/31 06:25:09;;;;;;;6.97;5.18;;;;;;;;;;4997083;28;20537;-70
2022/07/31 06:27:35;;;;;;;7.30;4.15;;;;;;;;;;4998277;28;20490;-72
2022/07/31 06:30:02;;;;;;;6.32;3.72;;;;;;;;;;4998959;28;20563;-71
2022/07/31 06:32:28;;;;;;;12.07;4.70;;;;;;;;;;4993109;28;20478;-70
2022/07/31 06:34:55;;;;;;;6.55;3.60;;;;;;;;;;4998452;28;20053;-72
2022/07/31 06:37:21;;;;;;;5.53;3.78;;;;;;;;;;4999852;28;20382;-69
2022/07/31 06:39:47;;;;;;;5.07;3.30;;;;;;;;;;4996951;28;20022;-68
2022/07/31 06:42:17;;;;;;;4.75;3.47;;;;;;;;;;4998993;28;20037;-72
2022/07/31 06:44:43;;;;;;;5.63;3.92;;;;;;;;;;4999427;28;20029;-70
2022/07/31 06:47:09;;;;;;;8.23;4.05;;;;;;;;;;4998892;28;20026;-71
2022/07/31 06:49:36;;;;;;;4.85;3.83;;;;;;;;;;4996950;28;20486;-75
2022/07/31 06:52:02;;;;;;;6.65;4.50;;;;;;;;;;5000707;28;20030;-72
2022/07/31 06:54:28;;;;;;;7.13;4.18;;;;;;;;;;5000060;28;20038;-73
2022/07/31 06:56:54;;;;;;;7.05;3.63;;;;;;;;;;4997875;28;20038;-73
2022/07/31 06:59:20;;;;;;;6.30;3.90;;;;;;;;;;5001723;28;20054;-70
2022/07/31 07:01:46;;;;;;;5.68;4.03;;;;;;;;;;5000723;28;20025;-74
2022/07/31 07:04:12;;;;;;;4.80;4.20;;;;;;;;;;5001871;28;20523;-74
2022/07/31 07:06:39;;;;;;;6.35;4.03;;;;;;;;;;5002533;28;20390;-70
2022/07/31 07:09:05;;;;;;;6.72;3.80;;;;;;;;;;5002622;28;20026;-68
2022/07/31 07:11:31;;;;;;;8.57;4.20;;;;;;;;;;5003771;28;20037;-73
2022/07/31 07:13:57;;;;;;;4.57;3.80;;;;;;;;;;4998150;28;20073;-69
2022/07/31 07:16:23;;;;;;;12.50;4.03;;;;;;;;;;5003536;28;20463;-73
2022/07/31 07:18:49;;;;;;;21.63;12.70;;;;;;;;;;5002965;28;20022;-72
2022/07/31 07:21:16;;;;;;;202.90;100.97;;;;;;;;;;4998364;28;20030;-74
2022/07/31 07:23:42;;;;;;;27.95;11.38;;;;;;;;;;5004031;28;20026;-73
2022/07/31 07:26:09;;;;;;;7.35;5.32;;;;;;;;;;5001473;28;20544;-73
2022/07/31 07:28:35;;;;;;;5.70;4.68;;;;;;;;;;5003950;28;20378;-72
2022/07/31 07:31:02;;;;;;;7.18;4.13;;;;;;;;;;5002403;28;20057;-74
2022/07/31 07:33:29;;;;;;;4.53;3.20;;;;;;;;;;5003723;28;20026;-74
2022/07/31 07:35:55;;;;;;;7.25;3.70;;;;;;;;;;5002808;28;20030;-72
2022/07/31 07:38:21;;;;;;;6.47;3.30;;;;;;;;;;5004605;28;20021;-74
2022/07/31 07:40:47;;;;;;;5.30;3.22;;;;;;;;;;4993440;28;20088;-75
2022/07/31 07:43:13;;;;;;;7.60;3.78;;;;;;;;;;4996008;28;20032;-74
2022/07/31 07:45:40;;;;;;;6.38;3.13;;;;;;;;;;4998283;28;20065;-72
2022/07/31 07:48:06;;;;;;;3.45;3.15;;;;;;;;;;5000831;28;20030;-71
2022/07/31 07:50:32;;;;;;;5.75;3.47;;;;;;;;;;5000629;28;20037;-74
2022/07/31 07:52:59;;;;;;;5.15;3.42;;;;;;;;;;4999803;28;20061;-68
2022/07/31 07:55:25;;;;;;;3.80;3.28;;;;;;;;;;4997960;28;20085;-67
2022/07/31 07:57:51;;;;;;;9.75;3.92;;;;;;;;;;5000278;28;20425;-74
2022/07/31 08:00:17;;;;;;;6.45;3.25;;;;;;;;;;4998190;28;20072;-67
2022/07/31 08:02:47;;;;;;;15.48;4.47;;;;;;;;;;5000830;28;20022;-68
2022/07/31 08:05:14;;;;;;;9.40;5.55;;;;;;;;;;5002184;28;20057;-74
2022/07/31 08:07:41;;;;;;;5.35;3.40;;;;;;;;;;4997613;28;20092;-72
2022/07/31 08:10:08;;;;;;;7.68;3.58;;;;;;;;;;4990633;28;20401;-79
2022/07/31 08:12:34;;;;;;;5.88;4.00;;;;;;;;;;4996883;28;20030;-69
2022/07/31 08:15:00;;;;;;;6.32;3.50;;;;;;;;;;4991594;28;20040;-77
2022/07/31 08:17:26;;;;;;;17.95;16.25;;;;;;;;;;4998824;28;20034;-72
2022/07/31 08:19:52;;;;;;;4.97;3.38;;;;;;;;;;4994980;28;20037;-68
2022/07/31 08:22:19;;;;;;;7.60;3.53;;;;;;;;;;4997718;28;20034;-71
2022/07/31 08:24:45;;;;;;;4.72;3.30;;;;;;;;;;4994440;28;20427;-71
2022/07/31 08:27:23;;;;;;;3.92;3.03;;;;;;;;;;4997674;28;20409;-69
2022/07/31 08:29:50;;;;;;;4.40;3.20;;;;;;;;;;4998248;28;20042;-69
2022/07/31 08:32:17;;;;;;;5.00;3.33;;;;;;;;;;4999191;28;20259;-73
2022/07/31 08:34:43;;;;;;;8.93;3.70;;;;;;;;;;4995378;28;20060;-76
2022/07/31 08:37:09;;;;;;;8.20;3.40;;;;;;;;;;4996830;28;20034;-67
2022/07/31 08:39:36;;;;;;;14.90;4.93;;;;;;;;;;4999137;28;20563;-72
2022/07/31 08:42:06;;;;;;;9.30;4.10;;;;;;;;;;4993734;28;20390;-70
2022/07/31 08:44:32;;;;;;;3.80;2.92;;;;;;;;;;4997148;28;20030;-67
2022/07/31 08:46:59;;;;;;;5.65;3.60;;;;;;;;;;4995388;28;20493;-71
2022/07/31 08:49:25;;;;;;;4.95;3.30;;;;;;;;;;4989663;28;20033;-69
2022/07/31 08:51:53;;;;;;;6.32;3.10;;;;;;;;;;4994556;28;20037;-73
2022/07/31 08:54:20;;;;;;;4.10;3.10;;;;;;;;;;4992605;28;20042;-77
2022/07/31 08:56:51;;;;;;;4.43;3.05;;;;;;;;;;4994401;28;20077;-72
2022/07/31 08:59:18;;;;;;;6.07;3.25;;;;;;;;;;4991392;28;20030;-75
2022/07/31 09:01:45;;;;;;;5.30;2.90;;;;;;;;;;4992987;28;20042;-71
2022/07/31 09:04:11;;;;;;;7.72;3.60;;;;;;;;;;4996211;28;20073;-75
2022/07/31 09:06:37;;;;;;;4.18;2.85;;;;;;;;;;5003216;28;20032;-71
2022/07/31 09:09:04;;;;;;;9.07;3.35;;;;;;;;;;4991241;28;20371;-75
2022/07/31 09:11:30;;;;;;;3.85;2.90;;;;;;;;;;5002523;28;20025;-76
2022/07/31 09:13:56;;;;;;;6.57;3.28;;;;;;;;;;5000772;28;20040;-77
2022/07/31 09:16:23;;;;;;;3.58;3.08;;;;;;;;;;4996136;28;20027;-72
2022/07/31 09:19:05;;;;;;;6.68;3.42;;;;;;;;;;4995691;28;20036;-75
2022/07/31 09:21:40;;;;;;;11.63;3.38;;;;;;;;;;4992237;28;20391;-67
2022/07/31 09:24:08;;;;;;;7.13;3.42;;;;;;;;;;4999689;28;20104;-67
2022/07/31 09:26:35;;;;;;;10.90;3.78;;;;;;;;;;5001359;28;20084;-66
2022/07/31 09:29:07;;;;;;;4.93;2.75;;;;;;;;;;5004692;28;20042;-66
2022/07/31 09:31:33;;;;;;;7.68;3.40;;;;;;;;;;5002711;28;20088;-66
2022/07/31 09:33:59;;;;;;;4.38;3.28;;;;;;;;;;5006100;28;20032;-66
2022/07/31 09:36:26;;;;;;;3.90;3.47;;;;;;;;;;5001572;28;20037;-66
2022/07/31 09:38:52;;;;;;;4.90;3.38;;;;;;;;;;5001511;28;20024;-66
2022/07/31 09:41:19;;;;;;;12.20;4.20;;;;;;;;;;5004593;28;20029;-67
2022/07/31 09:43:55;;;;;;;6.95;3.35;;;;;;;;;;4990189;28;20172;-69
2022/07/31 09:46:22;;;;;;;14.25;4.15;;;;;;;;;;5000275;28;20017;-66
2022/07/31 09:48:52;;;;;;;8.32;3.90;;;;;;;;;;4996465;28;20026;-67
2022/07/31 09:51:18;;;;;;;11.10;3.53;;;;;;;;;;4995737;28;20592;-66
2022/07/31 09:53:45;;;;;;;6.60;3.25;;;;;;;;;;4999614;28;20037;-69
2022/07/31 09:56:13;;;;;;;10.00;3.80;;;;;;;;;;4999630;28;20051;-68
2022/07/31 09:58:40;;;;;;;5.00;3.20;;;;;;;;;;5003500;28;20026;-68
2022/07/31 10:01:08;;;;;;;6.13;3.58;;;;;;;;;;4994714;28;20324;-68
2022/07/31 10:03:38;;;;;;;5.93;4.03;;;;;;;;;;4995438;28;20034;-69
2022/07/31 10:06:12;;;;;;;6.65;3.72;;;;;;;;;;4995760;28;20037;-69
2022/07/31 10:08:40;;;;;;;6.10;3.42;;;;;;;;;;5004269;28;20052;-68
2022/07/31 10:11:06;;;;;;;4.95;3.35;;;;;;;;;;5003600;28;20108;-69
2022/07/31 10:13:38;;;;;;;4.95;3.60;;;;;;;;;;4997724;28;20033;-68
2022/07/31 10:16:05;;;;;;;5.20;3.42;;;;;;;;;;5000510;28;20166;-69
2022/07/31 10:18:33;;;;;;;6.35;3.63;;;;;;;;;;5001904;28;20028;-69
2022/07/31 10:21:02;;;;;;;9.30;3.50;;;;;;;;;;5001224;28;20497;-68
2022/07/31 10:23:29;;;;;;;7.00;3.63;;;;;;;;;;4994643;28;20166;-69
2022/07/31 10:25:59;;;;;;;5.45;3.47;;;;;;;;;;5001896;28;20027;-68
2022/07/31 10:28:25;;;;;;;3.93;3.17;;;;;;;;;;5003830;28;20052;-69
2022/07/31 10:30:52;;;;;;;4.20;3.63;;;;;;;;;;5007746;28;20033;-69
2022/07/31 10:33:18;;;;;;;5.22;3.50;;;;;;;;;;5009375;28;20029;-69
2022/07/31 10:36:11;;;;;;;6.07;3.45;;;;;;;;;;5009960;28;20381;-69
2022/07/31 10:38:43;;;;;;;6.55;3.47;;;;;;;;;;4999953;28;20396;-69
2022/07/31 10:41:15;;;;;;;5.65;3.45;;;;;;;;;;5005398;28;20298;-68
2022/07/31 10:43:45;;;;;;;4.68;3.08;;;;;;;;;;5006633;28;20026;-68
2022/07/31 10:46:11;;;;;;;4.82;3.40;;;;;;;;;;5009584;28;20125;-68
2022/07/31 10:48:38;;;;;;;6.05;3.53;;;;;;;;;;5006145;28;20569;-69
2022/07/31 10:51:06;;;;;;;4.18;2.97;;;;;;;;;;5004209;28;20818;-70
2022/07/31 10:53:32;;;;;;;5.80;3.28;;;;;;;;;;5009579;28;20053;-69
2022/07/31 10:56:02;;;;;;;3.97;2.83;;;;;;;;;;5001944;28;20376;-69
2022/07/31 10:58:31;;;;;;;4.13;3.23;;;;;;;;;;5005861;28;20080;-68
2022/07/31 11:01:04;;;;;;;7.07;3.17;;;;;;;;;;5011333;28;20070;-69
2022/07/31 11:03:37;;;;;;;5.28;2.58;;;;;;;;;;5004624;28;20113;-69
2022/07/31 11:06:03;;;;;;;5.95;3.45;;;;;;;;;;5005228;28;20029;-68
2022/07/31 11:08:47;;;;;;;11.95;3.85;;;;;;;;;;5008755;28;20034;-68
2022/07/31 11:11:14;;;;;;;9.20;3.42;;;;;;;;;;5008451;28;20029;-70
2022/07/31 11:13:47;;;;;;;6.43;3.20;;;;;;;;;;5003382;28;20030;-69
2022/07/31 11:16:13;;;;;;;7.57;2.78;;;;;;;;;;5001967;28;20096;-68
2022/07/31 11:18:40;;;;;;;3.25;2.70;;;;;;;;;;5010329;28;20029;-69
2022/07/31 11:21:07;;;;;;;4.20;2.90;;;;;;;;;;5007594;28;20049;-69
2022/07/31 11:23:35;;;;;;;4.97;2.60;;;;;;;;;;5001215;28;20510;-69
2022/07/31 11:26:02;;;;;;;6.40;3.10;;;;;;;;;;5005805;28;20522;-69
2022/07/31 11:28:29;;;;;;;5.70;2.60;;;;;;;;;;5009073;28;20212;-70
2022/07/31 11:30:57;;;;;;;4.88;3.10;;;;;;;;;;5015265;28;20018;-72
2022/07/31 11:33:29;;;;;;;3.58;3.00;;;;;;;;;;5011312;28;20750;-71
2022/07/31 11:35:56;;;;;;;4.45;2.90;;;;;;;;;;5007071;28;20033;-70
2022/07/31 11:38:29;;;;;;;3.67;2.60;;;;;;;;;;5007579;28;20382;-70
2022/07/31 11:40:55;;;;;;;3.00;2.72;;;;;;;;;;5011564;28;20466;-70
2022/07/31 11:43:21;;;;;;;5.75;2.80;;;;;;;;;;5004225;28;20374;-71
2022/07/31 11:45:49;;;;;;;3.58;2.85;;;;;;;;;;5008640;28;20579;-70
2022/07/31 11:48:16;;;;;;;5.60;2.88;;;;;;;;;;5005915;28;20076;-71
2022/07/31 11:50:43;;;;;;;4.25;2.90;;;;;;;;;;4994173;28;20366;-71
2022/07/31 11:53:09;;;;;;;3.88;2.63;;;;;;;;;;4997887;28;20033;-69
2022/07/31 11:55:45;;;;;;;7.93;2.95;;;;;;;;;;4998264;28;20037;-72
2022/07/31 11:58:11;;;;;;;2.92;2.60;;;;;;;;;;5004776;28;20025;-69
2022/07/31 12:00:37;;;;;;;4.55;2.80;;;;;;;;;;4997247;28;20065;-69
2022/07/31 12:03:03;;;;;;;4.88;2.75;;;;;;;;;;4992694;28;20038;-70
2022/07/31 12:05:30;;;;;;;6.82;3.00;;;;;;;;;;5000789;28;20045;-69
2022/07/31 12:07:56;;;;;;;4.32;2.83;;;;;;;;;;5001411;28;20442;-73
2022/07/31 12:10:22;;;;;;;5.35;3.10;;;;;;;;;;4997606;28;20025;-71
2022/07/31 12:12:48;;;;;;;6.25;3.10;;;;;;;;;;5000634;28;20029;-74
2022/07/31 12:15:17;;;;;;;3.30;2.63;;;;;;;;;;4999708;28;20096;-72
2022/07/31 12:17:43;;;;;;;4.40;2.60;;;;;;;;;;4996259;28;20019;-70
2022/07/31 12:20:09;;;;;;;4.72;2.90;;;;;;;;;;4999523;28;20037;-72
2022/07/31 12:22:36;;;;;;;5.63;2.92;;;;;;;;;;4997004;28;20033;-72
2022/07/31 12:25:02;;;;;;;4.95;2.92;;;;;;;;;;5001125;28;20029;-70
2022/07/31 12:27:28;;;;;;;7.22;3.35;;;;;;;;;;4995687;28;20045;-70
2022/07/31 12:29:54;;;;;;;5.60;2.72;;;;;;;;;;5003255;28;20092;-69
2022/07/31 12:32:24;;;;;;;5.35;3.20;;;;;;;;;;5011649;28;20080;-70
2022/07/31 12:35:00;;;;;;;7.88;2.90;;;;;;;;;;5003175;28;20514;-69
2022/07/31 12:37:26;;;;;;;4.65;2.70;;;;;;;;;;5000932;28;20025;-70
2022/07/31 12:39:53;;;;;;;4.78;2.65;;;;;;;;;;5004489;28;20036;-69
2022/07/31 12:42:26;;;;;;;6.63;2.53;;;;;;;;;;5007080;28;20028;-70
2022/07/31 12:44:53;;;;;;;6.90;2.72;;;;;;;;;;4994372;28;20022;-70
2022/07/31 12:47:21;;;;;;;6.40;2.70;;;;;;;;;;4999635;28;20029;-70
2022/07/31 12:49:47;;;;;;;5.05;2.40;;;;;;;;;;5000032;28;20029;-70
2022/07/31 12:52:13;;;;;;;4.35;2.30;;;;;;;;;;4995219;28;20034;-69
2022/07/31 12:54:39;;;;;;;5.38;2.17;;;;;;;;;;4999700;28;20525;-69
2022/07/31 12:57:05;;;;;;;4.90;2.30;;;;;;;;;;4991735;28;20054;-71
2022/07/31 12:59:31;;;;;;;4.55;2.38;;;;;;;;;;4997691;28;20104;-69
2022/07/31 13:01:58;;;;;;;4.03;2.22;;;;;;;;;;4995524;28;20110;-69
2022/07/31 13:04:24;;;;;;;5.43;2.55;;;;;;;;;;5001364;28;20078;-71
2022/07/31 13:06:50;;;;;;;5.43;2.38;;;;;;;;;;4997415;28;20040;-70
2022/07/31 13:09:17;;;;;;;11.02;2.45;;;;;;;;;;4998440;28;20053;-70
2022/07/31 13:11:44;;;;;;;6.93;3.00;;;;;;;;;;4994326;28;20040;-70
2022/07/31 13:14:10;;;;;;;6.38;2.33;;;;;;;;;;4999233;28;20060;-71
2022/07/31 13:16:37;;;;;;;3.00;2.08;;;;;;;;;;4996986;28;20026;-70
2022/07/31 13:19:04;;;;;;;5.35;2.40;;;;;;;;;;4993600;28;20033;-69
2022/07/31 13:21:30;;;;;;;5.50;2.60;;;;;;;;;;4996413;28;20363;-71
2022/07/31 13:23:57;;;;;;;5.07;2.33;;;;;;;;;;4998056;28;20021;-70
2022/07/31 13:26:25;;;;;;;5.60;2.53;;;;;;;;;;4995540;28;20410;-70
2022/07/31 13:28:53;;;;;;;3.85;2.42;;;;;;;;;;4997308;28;20272;-72
2022/07/31 13:31:19;;;;;;;6.38;2.63;;;;;;;;;;4999601;28;20378;-70
2022/07/31 13:33:45;;;;;;;7.20;2.83;;;;;;;;;;5001139;28;20350;-73
2022/07/31 13:36:11;;;;;;;4.70;2.53;;;;;;;;;;4995483;28;20084;-70
2022/07/31 13:38:37;;;;;;;8.20;2.92;;;;;;;;;;4998556;28;20430;-69
2022/07/31 13:43:48;;;;;;;6.57;2.25;;;;;;;;;;5001615;28;20048;-70
2022/07/31 13:46:14;;;;;;;4.53;2.70;;;;;;;;;;5000590;28;20045;-69
2022/07/31 13:48:40;;;;;;;6.15;2.10;;;;;;;;;;5003533;28;20030;-70
2022/07/31 13:51:06;;;;;;;7.15;2.67;;;;;;;;;;5001270;28;20034;-73
2022/07/31 13:53:33;;;;;;;4.88;2.38;;;;;;;;;;5006105;28;20496;-69
2022/07/31 13:55:59;;;;;;;4.57;2.28;;;;;;;;;;4997888;28;20201;-70
2022/07/31 13:58:26;;;;;;;3.63;2.28;;;;;;;;;;4997946;28;20030;-70
2022/07/31 14:00:52;;;;;;;4.63;2.35;;;;;;;;;;4995710;28;20049;-70
2022/07/31 14:03:19;;;;;;;3.78;2.40;;;;;;;;;;5007431;28;20041;-70
2022/07/31 14:05:45;;;;;;;3.42;2.30;;;;;;;;;;4998045;28;20025;-70
2022/07/31 14:08:11;;;;;;;4.18;2.38;;;;;;;;;;5005466;28;20438;-70
2022/07/31 14:10:37;;;;;;;4.85;2.47;;;;;;;;;;5004369;28;20470;-69
2022/07/31 14:13:03;;;;;;;3.53;2.22;;;;;;;;;;5005979;28;20045;-70
2022/07/31 14:15:29;;;;;;;5.70;2.40;;;;;;;;;;4998038;28;20080;-70
2022/07/31 14:17:57;;;;;;;2.90;2.20;;;;;;;;;;5005876;28;20029;-70
2022/07/31 14:20:23;;;;;;;4.63;2.03;;;;;;;;;;4999874;28;20017;-70
2022/07/31 14:22:50;;;;;;;7.60;2.75;;;;;;;;;;4999135;28;20793;-70
2022/07/31 14:25:16;;;;;;;5.50;2.53;;;;;;;;;;5005041;28;20036;-70
2022/07/31 14:27:44;;;;;;;5.20;2.20;;;;;;;;;;5006093;28;20045;-70
2022/07/31 14:30:12;;;;;;;5.40;2.63;;;;;;;;;;5006671;28;20033;-70
2022/07/31 14:32:38;;;;;;;5.82;2.15;;;;;;;;;;5008398;28;20029;-70
2022/07/31 14:35:04;;;;;;;6.68;2.78;;;;;;;;;;4999802;28;20041;-71
2022/07/31 14:37:31;;;;;;;4.07;2.85;;;;;;;;;;5004932;28;20403;-70
2022/07/31 14:39:57;;;;;;;5.03;2.42;;;;;;;;;;5007116;28;20674;-69
2022/07/31 14:42:23;;;;;;;4.28;2.42;;;;;;;;;;5008182;28;20033;-70